createdAt,value
2023-08-11T00:01:06.476Z,102018.22
2023-08-11T00:03:34.049Z,102023.56
2023-08-11T00:06:00.838Z,102021.06
2023-08-11T00:08:27.425Z,102010.72
2023-08-11T00:10:54.003Z,102023.78
2023-08-11T00:13:20.545Z,102018.41
2023-08-11T00:15:47.142Z,102022.41
2023-08-11T00:18:13.681Z,102015.84
2023-08-11T00:20:40.239Z,102020.16
2023-08-11T00:23:06.803Z,102011.22
2023-08-11T00:25:33.528Z,102007.41
2023-08-11T00:28:00.278Z,102009.50
2023-08-11T00:30:26.840Z,102016.63
2023-08-11T00:32:53.551Z,102007.91
2023-08-11T00:35:20.229Z,102009.34
2023-08-11T00:37:46.794Z,102008.56
2023-08-11T00:40:13.333Z,102018.06
2023-08-11T00:42:40.019Z,102026.94
2023-08-11T00:45:07.768Z,102022.50
2023-08-11T00:47:34.467Z,102019.88
2023-08-11T00:50:01.173Z,102018.28
2023-08-11T00:52:27.826Z,102019.78
2023-08-11T00:54:56.702Z,102007.81
2023-08-11T00:57:24.025Z,102006.66
2023-08-11T00:59:51.846Z,101996.13
2023-08-11T01:02:18.887Z,101994.53
2023-08-11T01:04:45.455Z,101989.78
2023-08-11T01:07:37.297Z,101995.34
2023-08-11T01:10:20.341Z,101988.50
2023-08-11T01:13:06.987Z,101995.28
2023-08-11T01:15:40.641Z,101987.06
2023-08-11T01:18:08.401Z,101988.72
2023-08-11T01:20:36.223Z,101978.84
2023-08-11T01:23:05.865Z,101979.94
2023-08-11T01:25:33.545Z,101976.72
2023-08-11T01:28:01.098Z,101971.41
2023-08-11T01:30:29.028Z,101967.66
2023-08-11T01:32:55.531Z,101978.25
2023-08-11T01:35:38.406Z,101955.75
2023-08-11T01:38:11.297Z,101965.22
2023-08-11T01:40:39.258Z,101964.91
2023-08-11T01:43:08.568Z,101968.16
2023-08-11T01:45:35.142Z,101973.72
2023-08-11T01:48:02.837Z,101962.97
2023-08-11T01:50:30.420Z,101965.56
2023-08-11T01:52:57.237Z,101966.28
2023-08-11T01:55:26.222Z,101966.66
2023-08-11T01:57:59.098Z,101970.53
2023-08-11T02:00:27.843Z,101961.78
2023-08-11T02:02:55.158Z,101964.78
2023-08-11T02:05:22.696Z,101974.34
2023-08-11T02:07:49.196Z,101955.56
2023-08-11T02:10:15.806Z,101957.50
2023-08-11T02:12:42.528Z,101947.50
2023-08-11T02:15:11.826Z,101948.03
2023-08-11T02:17:39.179Z,101949.94
2023-08-11T02:20:22.646Z,101944.84
2023-08-11T02:22:50.456Z,101943.34
2023-08-11T02:25:17.159Z,101946.41
2023-08-11T02:27:44.766Z,101947.88
2023-08-11T02:30:12.726Z,101951.81
2023-08-11T02:32:40.533Z,101949.66
2023-08-11T02:35:07.460Z,101943.22
2023-08-11T02:37:34.287Z,101948.69
2023-08-11T02:40:00.815Z,101954.16
2023-08-11T02:42:27.320Z,101956.81
2023-08-11T02:44:54.148Z,101956.47
2023-08-11T02:47:20.686Z,101960.34
2023-08-11T02:49:47.184Z,101959.09
2023-08-11T02:52:14.176Z,101961.31
2023-08-11T02:54:40.788Z,101960.44
2023-08-11T02:57:07.365Z,101961.84
2023-08-11T02:59:33.979Z,101967.31
2023-08-11T03:02:00.515Z,101952.94
2023-08-11T03:04:27.094Z,101958.13
2023-08-11T03:06:53.687Z,101954.94
2023-08-11T03:09:20.245Z,101954.94
2023-08-11T03:11:46.742Z,101956.16
2023-08-11T03:14:13.402Z,101958.84
2023-08-11T03:16:40.023Z,101950.09
2023-08-11T03:19:06.542Z,101944.13
2023-08-11T03:21:33.273Z,101942.53
2023-08-11T03:24:00.693Z,101935.53
2023-08-11T03:26:27.269Z,101936.41
2023-08-11T03:28:53.790Z,101935.72
2023-08-11T03:31:20.345Z,101938.00
2023-08-11T03:33:47.018Z,101934.03
2023-08-11T03:36:14.117Z,101934.31
2023-08-11T03:38:40.835Z,101930.75
2023-08-11T03:41:07.731Z,101939.78
2023-08-11T03:43:34.272Z,101934.56
2023-08-11T03:46:01.160Z,101939.16
2023-08-11T03:48:27.717Z,101946.50
2023-08-11T03:50:59.575Z,101943.22
2023-08-11T03:53:26.098Z,101936.44
2023-08-11T03:55:52.594Z,101938.72
2023-08-11T03:58:19.212Z,101926.38
2023-08-11T04:00:45.783Z,101934.69
2023-08-11T04:03:12.368Z,101940.16
2023-08-11T04:05:39.033Z,101929.66
2023-08-11T04:08:05.707Z,101926.97
2023-08-11T04:10:32.614Z,101929.34
2023-08-11T04:12:59.214Z,101929.72
2023-08-11T04:15:25.901Z,101928.84
2023-08-11T04:17:53.260Z,101930.78
2023-08-11T04:20:20.018Z,101929.66
2023-08-11T04:22:46.535Z,101926.81
2023-08-11T04:25:13.557Z,101930.59
2023-08-11T04:27:40.738Z,101922.66
2023-08-11T04:30:09.121Z,101925.75
2023-08-11T04:32:35.662Z,101919.91
2023-08-11T04:35:02.289Z,101927.09
2023-08-11T04:37:28.844Z,101920.53
2023-08-11T04:39:55.404Z,101922.13
2023-08-11T04:42:21.931Z,101920.22
2023-08-11T04:44:48.947Z,101913.59
2023-08-11T04:47:16.025Z,101918.88
2023-08-11T04:49:43.307Z,101916.13
2023-08-11T04:52:10.754Z,101916.28
2023-08-11T04:54:37.429Z,101914.69
2023-08-11T04:57:04.251Z,101914.69
2023-08-11T04:59:30.825Z,101906.13
2023-08-11T05:01:57.421Z,101900.75
2023-08-11T05:04:24.002Z,101896.94
2023-08-11T05:06:50.503Z,101893.22
2023-08-11T05:09:17.014Z,101890.56
2023-08-11T05:11:43.554Z,101894.53
2023-08-11T05:14:10.030Z,101891.94
2023-08-11T05:16:36.830Z,101889.72
2023-08-11T05:19:05.147Z,101887.50
2023-08-11T05:21:31.800Z,101889.97
2023-08-11T05:23:58.320Z,101887.72
2023-08-11T05:26:24.948Z,101882.75
2023-08-11T05:28:51.545Z,101889.44
2023-08-11T05:31:18.259Z,101873.53
2023-08-11T05:33:45.074Z,101882.72
2023-08-11T05:36:11.606Z,101893.38
2023-08-11T05:38:38.252Z,101884.44
2023-08-11T05:41:04.842Z,101890.03
2023-08-11T05:43:31.467Z,101886.59
2023-08-11T05:45:58.576Z,101889.41
2023-08-11T05:48:25.162Z,101891.34
2023-08-11T05:50:51.663Z,101894.88
2023-08-11T05:53:18.252Z,101892.28
2023-08-11T05:55:44.817Z,101888.16
2023-08-11T05:58:11.515Z,101890.59
2023-08-11T06:00:38.060Z,101896.13
2023-08-11T06:03:04.678Z,101893.09
2023-08-11T06:05:31.282Z,101899.44
2023-08-11T06:08:06.169Z,101889.75
2023-08-11T06:10:34.320Z,101901.19
2023-08-11T06:13:00.973Z,101895.06
2023-08-11T06:15:27.571Z,101892.81
2023-08-11T06:17:54.166Z,101891.69
2023-08-11T06:20:34.267Z,101887.84
2023-08-11T06:23:06.290Z,101893.47
2023-08-11T06:25:32.836Z,101899.03
2023-08-11T06:27:59.377Z,101891.66
2023-08-11T06:30:30.552Z,101898.78
2023-08-11T06:32:57.853Z,101898.53
2023-08-11T06:35:25.461Z,101895.09
2023-08-11T06:37:52.135Z,101900.69
2023-08-11T06:40:19.019Z,101908.22
2023-08-11T06:42:45.692Z,101904.44
2023-08-11T06:45:12.401Z,101901.78
2023-08-11T06:47:38.967Z,101903.00
2023-08-11T06:50:06.062Z,101904.63
2023-08-11T06:52:32.737Z,101907.03
2023-08-11T06:54:59.293Z,101916.56
2023-08-11T06:57:25.877Z,101911.94
2023-08-11T06:59:52.430Z,101911.25
2023-08-11T07:02:19.097Z,101910.22
2023-08-11T07:04:46.053Z,101909.94
2023-08-11T07:07:12.558Z,101909.25
2023-08-11T07:09:39.210Z,101908.16
2023-08-11T07:12:05.894Z,101908.59
2023-08-11T07:14:32.515Z,101909.88
2023-08-11T07:16:59.072Z,101917.81
2023-08-11T07:19:25.800Z,101913.19
2023-08-11T07:21:52.285Z,101912.09
2023-08-11T07:24:18.801Z,101908.25
2023-08-11T07:26:45.396Z,101910.28
2023-08-11T07:29:12.050Z,101908.84
2023-08-11T07:31:40.617Z,101910.09
2023-08-11T07:34:07.162Z,101904.25
2023-08-11T07:36:33.656Z,101906.66
2023-08-11T07:39:12.744Z,101901.56
2023-08-11T07:41:47.104Z,101906.75
2023-08-11T07:44:13.734Z,101905.22
2023-08-11T07:46:40.313Z,101907.63
2023-08-11T07:49:07.222Z,101903.75
2023-08-11T07:51:33.852Z,101914.03
2023-08-11T07:54:00.460Z,101904.66
2023-08-11T07:56:27.125Z,101915.75
2023-08-11T07:58:54.242Z,101911.84
2023-08-11T08:01:21.084Z,101916.28
2023-08-11T08:03:47.758Z,101915.53
2023-08-11T08:06:15.718Z,101909.63
2023-08-11T08:08:42.241Z,101915.19
2023-08-11T08:11:08.830Z,101905.72
2023-08-11T08:13:35.397Z,101904.56
2023-08-11T08:16:01.971Z,101908.56
2023-08-11T08:18:28.504Z,101909.75
2023-08-11T08:20:55.098Z,101903.03
2023-08-11T08:23:22.027Z,101904.22
2023-08-11T08:25:48.601Z,101902.63
2023-08-11T08:28:15.146Z,101895.50
2023-08-11T08:30:42.386Z,101895.09
2023-08-11T08:33:09.119Z,101893.88
2023-08-11T08:35:37.208Z,101895.03
2023-08-11T08:38:04.403Z,101899.75
2023-08-11T08:40:32.419Z,101897.75
2023-08-11T08:42:59.046Z,101893.31
2023-08-11T08:45:26.837Z,101896.44
2023-08-11T08:47:55.960Z,101897.59
2023-08-11T08:50:24.033Z,101905.47
2023-08-11T08:52:53.025Z,101903.47
2023-08-11T08:55:20.022Z,101900.28
2023-08-11T08:57:48.380Z,101900.19
2023-08-11T09:00:15.408Z,101897.69
2023-08-11T09:02:43.304Z,101902.78
2023-08-11T09:05:10.198Z,101898.31
2023-08-11T09:07:36.828Z,101896.59
2023-08-11T09:10:03.492Z,101896.69
2023-08-11T09:12:30.111Z,101891.63
2023-08-11T09:14:57.295Z,101903.09
2023-08-11T09:17:25.321Z,101904.63
2023-08-11T09:19:53.555Z,101894.59
2023-08-11T09:22:26.790Z,101892.44
2023-08-11T09:24:54.978Z,101893.31
2023-08-11T09:27:22.904Z,101881.81
2023-08-11T09:29:50.916Z,101892.25
2023-08-11T09:32:17.606Z,101888.03
2023-08-11T09:34:44.905Z,101896.44
2023-08-11T09:37:11.834Z,101900.44
2023-08-11T09:39:38.502Z,101894.91
2023-08-11T09:42:05.431Z,101899.00
2023-08-11T09:44:31.983Z,101891.56
2023-08-11T09:46:58.957Z,101894.41
2023-08-11T09:49:25.726Z,101885.06
2023-08-11T09:51:55.255Z,101885.41
2023-08-11T09:54:22.629Z,101882.81
2023-08-11T09:56:50.504Z,101881.38
2023-08-11T09:59:20.190Z,101889.69
2023-08-11T10:01:47.559Z,101889.84
2023-08-11T10:04:23.941Z,101890.38
2023-08-11T10:06:54.331Z,101889.47
2023-08-11T10:09:24.457Z,101890.66
2023-08-11T10:11:53.771Z,101893.34
2023-08-11T10:14:22.584Z,101892.97
2023-08-11T10:16:49.153Z,101895.03
2023-08-11T10:19:16.018Z,101903.03
2023-08-11T10:21:42.624Z,101902.19
2023-08-11T10:24:10.008Z,101905.50
2023-08-11T10:26:37.603Z,101900.25
2023-08-11T10:29:04.749Z,101900.50
2023-08-11T10:31:33.123Z,101889.16
2023-08-11T10:34:06.959Z,101883.00
2023-08-11T10:36:34.094Z,101892.88
2023-08-11T10:39:01.907Z,101886.13
2023-08-11T10:41:29.568Z,101892.44
2023-08-11T10:43:57.327Z,101882.13
2023-08-11T10:46:32.081Z,101888.81
2023-08-11T10:48:58.659Z,101885.97
2023-08-11T10:51:30.675Z,101887.25
2023-08-11T10:54:00.775Z,101885.69
2023-08-11T10:56:35.988Z,101882.03
2023-08-11T10:59:26.600Z,101884.78
2023-08-11T11:01:55.047Z,101881.59
2023-08-11T11:04:23.527Z,101880.81
2023-08-11T11:06:54.727Z,101875.69
2023-08-11T11:09:22.670Z,101873.66
2023-08-11T11:11:51.822Z,101866.00
2023-08-11T11:14:18.651Z,101871.22
2023-08-11T11:16:45.302Z,101870.34
2023-08-11T11:19:11.873Z,101869.53
2023-08-11T11:21:41.135Z,101875.00
2023-08-11T11:24:09.110Z,101879.22
2023-08-11T11:26:35.838Z,101876.00
2023-08-11T11:29:04.199Z,101867.25
2023-08-11T11:31:33.179Z,101873.97
2023-08-11T11:33:59.982Z,101871.97
2023-08-11T11:36:26.860Z,101864.75
2023-08-11T11:38:53.438Z,101863.91
2023-08-11T11:41:21.034Z,101866.97
2023-08-11T11:43:49.215Z,101868.44
2023-08-11T11:46:17.799Z,101872.31
2023-08-11T11:48:52.389Z,101863.53
2023-08-11T11:51:22.064Z,101866.31
2023-08-11T11:53:51.569Z,101864.25
2023-08-11T11:56:19.117Z,101862.19
2023-08-11T11:58:49.352Z,101857.28
2023-08-11T12:01:22.625Z,101861.38
2023-08-11T12:03:51.251Z,101857.59
2023-08-11T12:06:19.744Z,101851.06
2023-08-11T12:08:49.482Z,101850.41
2023-08-11T12:11:23.886Z,101846.94
2023-08-11T12:13:51.086Z,101850.72
2023-08-11T12:16:18.576Z,101847.22
2023-08-11T12:18:45.201Z,101859.84
2023-08-11T12:21:12.311Z,101851.84
2023-08-11T12:23:39.408Z,101848.38
2023-08-11T12:26:06.203Z,101848.88
2023-08-11T12:28:32.762Z,101853.84
2023-08-11T12:30:59.302Z,101855.56
2023-08-11T12:33:26.658Z,101860.38
2023-08-11T12:35:53.303Z,101848.38
2023-08-11T12:38:21.848Z,101836.66
2023-08-11T12:40:49.686Z,101848.56
2023-08-11T12:43:17.091Z,101843.00
2023-08-11T12:45:48.720Z,101840.47
2023-08-11T12:48:15.918Z,101849.25
2023-08-11T12:50:43.024Z,101841.13
2023-08-11T12:53:10.175Z,101846.38
2023-08-11T12:55:40.421Z,101839.75
2023-08-11T12:58:07.309Z,101833.94
2023-08-11T13:00:36.230Z,101839.78
2023-08-11T13:03:03.097Z,101825.38
2023-08-11T13:05:29.757Z,101833.06
2023-08-11T13:07:57.298Z,101833.22
2023-08-11T13:10:23.855Z,101836.16
2023-08-11T13:12:50.602Z,101835.03
2023-08-11T13:15:17.379Z,101837.22
2023-08-11T13:17:45.858Z,101836.69
2023-08-11T13:20:13.501Z,101837.81
2023-08-11T13:22:41.184Z,101842.13
2023-08-11T13:25:08.268Z,101840.03
2023-08-11T13:27:35.111Z,101838.91
2023-08-11T13:30:02.174Z,101831.41
2023-08-11T13:32:29.633Z,101832.91
2023-08-11T13:34:56.214Z,101826.91
2023-08-11T13:37:22.694Z,101822.53
2023-08-11T13:39:49.218Z,101827.19
2023-08-11T13:42:17.583Z,101835.56
2023-08-11T13:44:44.344Z,101830.66
2023-08-11T13:47:11.015Z,101834.31
2023-08-11T13:49:37.535Z,101831.03
2023-08-11T13:52:04.347Z,101823.59
2023-08-11T13:54:31.025Z,101826.72
2023-08-11T13:56:57.560Z,101822.03
2023-08-11T13:59:24.075Z,101812.06
2023-08-11T14:01:50.608Z,101824.00
2023-08-11T14:04:17.920Z,101814.53
2023-08-11T14:06:44.437Z,101817.88
2023-08-11T14:09:10.903Z,101814.03
2023-08-11T14:11:38.814Z,101819.16
2023-08-11T14:14:05.570Z,101822.50
2023-08-11T14:16:32.158Z,101817.78
2023-08-11T14:18:58.827Z,101822.34
2023-08-11T14:21:25.369Z,101826.09
2023-08-11T14:23:51.962Z,101825.19
2023-08-11T14:26:18.585Z,101831.38
2023-08-11T14:28:45.403Z,101825.91
2023-08-11T14:31:12.230Z,101825.97
2023-08-11T14:33:42.050Z,101828.66
2023-08-11T14:36:12.876Z,101824.47
2023-08-11T14:38:40.352Z,101822.03
2023-08-11T14:41:07.769Z,101824.56
2023-08-11T14:43:35.029Z,101830.47
2023-08-11T14:46:01.717Z,101825.25
2023-08-11T14:48:28.559Z,101825.00
2023-08-11T14:50:55.459Z,101828.72
2023-08-11T14:53:24.257Z,101831.56
2023-08-11T14:55:51.725Z,101830.88
2023-08-11T14:58:18.854Z,101823.31
2023-08-11T15:00:45.662Z,101824.09
2023-08-11T15:03:13.728Z,101821.38
2023-08-11T15:05:41.011Z,101828.66
2023-08-11T15:08:08.310Z,101827.66
2023-08-11T15:10:35.526Z,101830.94
2023-08-11T15:13:05.204Z,101828.72
2023-08-11T15:15:32.633Z,101825.47
2023-08-11T15:17:59.295Z,101829.19
2023-08-11T15:20:25.994Z,101827.41
2023-08-11T15:22:52.712Z,101832.34
2023-08-11T15:25:20.097Z,101827.88
2023-08-11T15:27:47.082Z,101826.09
2023-08-11T15:30:14.064Z,101821.81
2023-08-11T15:32:40.762Z,101819.81
2023-08-11T15:35:09.070Z,101814.81
2023-08-11T15:37:36.525Z,101813.78
2023-08-11T15:40:05.248Z,101822.16
2023-08-11T15:42:31.943Z,101817.13
2023-08-11T15:44:58.588Z,101822.34
2023-08-11T15:47:25.112Z,101820.34
2023-08-11T15:49:51.646Z,101823.91
2023-08-11T15:52:18.134Z,101824.78
2023-08-11T15:54:44.759Z,101818.78
2023-08-11T15:57:11.287Z,101823.88
2023-08-11T15:59:37.833Z,101826.34
2023-08-11T16:02:10.053Z,101826.75
2023-08-11T16:04:37.716Z,101823.31
2023-08-11T16:07:04.345Z,101820.97
2023-08-11T16:09:30.936Z,101814.63
2023-08-11T16:11:57.606Z,101815.13
2023-08-11T16:14:27.785Z,101801.53
2023-08-11T16:16:55.092Z,101802.81
2023-08-11T16:19:21.717Z,101790.56
2023-08-11T16:21:48.745Z,101804.44
2023-08-11T16:24:15.497Z,101808.44
2023-08-11T16:26:42.139Z,101808.97
2023-08-11T16:29:08.771Z,101795.47
2023-08-11T16:31:35.493Z,101793.50
2023-08-11T16:34:02.159Z,101789.47
2023-08-11T16:36:28.869Z,101797.78
2023-08-11T16:38:55.437Z,101792.25
2023-08-11T16:41:22.095Z,101802.47
2023-08-11T16:43:50.981Z,101799.63
2023-08-11T16:46:19.444Z,101808.78
2023-08-11T16:48:46.207Z,101803.34
2023-08-11T16:51:15.086Z,101797.47
2023-08-11T16:53:42.443Z,101801.56
2023-08-11T16:56:09.315Z,101806.72
2023-08-11T16:58:36.699Z,101801.97
2023-08-11T17:01:03.295Z,101805.59
2023-08-11T17:03:30.098Z,101809.59
2023-08-11T17:05:56.698Z,101804.47
2023-08-11T17:08:23.203Z,101797.38
2023-08-11T17:10:49.709Z,101799.78
2023-08-11T17:13:16.217Z,101789.91
2023-08-11T17:15:42.815Z,101794.59
2023-08-11T17:18:09.367Z,101794.19
2023-08-11T17:20:36.445Z,101795.81
2023-08-11T17:23:03.008Z,101801.00
2023-08-11T17:25:29.520Z,101796.75
2023-08-11T17:27:55.996Z,101796.16
2023-08-11T17:30:22.530Z,101799.41
2023-08-11T17:32:49.351Z,101800.66
2023-08-11T17:35:16.109Z,101812.25
2023-08-11T17:37:42.637Z,101817.41
2023-08-11T17:40:09.925Z,101813.50
2023-08-11T17:42:36.550Z,101806.81
2023-08-11T17:45:03.493Z,101811.28
2023-08-11T17:47:30.060Z,101814.13
2023-08-11T17:49:56.595Z,101814.19
2023-08-11T17:52:23.260Z,101808.72
2023-08-11T17:54:50.678Z,101806.03
2023-08-11T17:57:17.242Z,101808.41
2023-08-11T17:59:43.724Z,101805.72
2023-08-11T18:02:10.569Z,101808.56
2023-08-11T18:04:37.462Z,101802.25
2023-08-11T18:07:04.111Z,101791.59
2023-08-11T18:09:30.708Z,101796.34
2023-08-11T18:11:57.221Z,101801.16
2023-08-11T18:14:24.156Z,101804.84
2023-08-11T18:16:50.801Z,101808.78
2023-08-11T18:19:17.326Z,101813.91
2023-08-11T18:21:43.860Z,101810.38
2023-08-11T18:24:10.454Z,101813.16
2023-08-11T18:26:36.936Z,101821.91
2023-08-11T18:29:03.983Z,101823.09
2023-08-11T18:31:30.753Z,101823.09
2023-08-11T18:33:57.400Z,101829.81
2023-08-11T18:36:23.980Z,101829.06
2023-08-11T18:38:50.607Z,101830.69
2023-08-11T18:41:17.076Z,101825.94
2023-08-11T18:43:43.603Z,101824.75
2023-08-11T18:46:10.186Z,101822.81
2023-08-11T18:48:36.836Z,101835.06
2023-08-11T18:51:03.414Z,101826.41
2023-08-11T18:53:29.924Z,101819.28
2023-08-11T18:55:56.501Z,101823.25
2023-08-11T18:58:23.434Z,101819.72
2023-08-11T19:00:49.989Z,101824.03
2023-08-11T19:03:16.542Z,101818.94
2023-08-11T19:05:43.298Z,101823.31
2023-08-11T19:08:09.862Z,101826.50
2023-08-11T19:10:36.536Z,101826.16
2023-08-11T19:13:03.288Z,101824.66
2023-08-11T19:15:30.671Z,101824.31
2023-08-11T19:17:57.280Z,101825.16
2023-08-11T19:20:23.816Z,101814.91
2023-08-11T19:22:50.427Z,101824.78
2023-08-11T19:25:17.077Z,101833.09
2023-08-11T19:27:43.561Z,101839.81
2023-08-11T19:30:10.691Z,101843.78
2023-08-11T19:32:37.253Z,101837.84
2023-08-11T19:35:05.194Z,101839.00
2023-08-11T19:37:31.844Z,101837.06
2023-08-11T19:39:58.478Z,101823.25
2023-08-11T19:42:25.009Z,101821.28
2023-08-11T19:44:51.777Z,101830.78
2023-08-11T19:47:18.325Z,101833.94
2023-08-11T19:49:44.864Z,101833.56
2023-08-11T19:52:11.972Z,101835.16
2023-08-11T19:54:39.196Z,101834.00
2023-08-11T19:57:06.304Z,101830.44
2023-08-11T19:59:32.943Z,101817.81
2023-08-11T20:01:59.569Z,101821.75
2023-08-11T20:04:26.185Z,101819.41
2023-08-11T20:06:52.727Z,101814.28
2023-08-11T20:09:20.395Z,101819.81
2023-08-11T20:11:47.128Z,101821.78
2023-08-11T20:14:13.772Z,101815.88
2023-08-11T20:16:40.361Z,101816.28
2023-08-11T20:19:06.927Z,101818.25
2023-08-11T20:21:33.790Z,101808.38
2023-08-11T20:24:00.335Z,101809.97
2023-08-11T20:26:27.365Z,101805.22
2023-08-11T20:28:54.747Z,101794.56
2023-08-11T20:31:21.653Z,101793.00
2023-08-11T20:33:48.251Z,101795.78
2023-08-11T20:36:15.001Z,101789.47
2023-08-11T20:38:41.521Z,101798.16
2023-08-11T20:41:08.166Z,101798.13
2023-08-11T20:43:34.718Z,101793.81
2023-08-11T20:46:01.652Z,101796.97
2023-08-11T20:48:28.898Z,101792.22
2023-08-11T20:51:03.332Z,101789.47
2023-08-11T20:53:30.530Z,101802.06
2023-08-11T20:56:00.655Z,101799.72
2023-08-11T20:58:28.060Z,101804.41
2023-08-11T21:00:55.160Z,101807.97
2023-08-11T21:03:22.134Z,101808.34
2023-08-11T21:05:48.736Z,101794.19
2023-08-11T21:08:17.369Z,101801.28
2023-08-11T21:10:45.543Z,101785.09
2023-08-11T21:13:12.986Z,101787.06
2023-08-11T21:15:40.140Z,101787.47
2023-08-11T21:18:08.585Z,101777.63
2023-08-11T21:20:36.568Z,101787.84
2023-08-11T21:23:04.353Z,101794.19
2023-08-11T21:25:30.838Z,101791.81
2023-08-11T21:27:57.409Z,101796.56
2023-08-11T21:30:24.014Z,101787.09
2023-08-11T21:32:52.108Z,101794.16
2023-08-11T21:35:19.722Z,101794.16
2023-08-11T21:37:46.318Z,101791.03
2023-08-11T21:40:13.221Z,101778.41
2023-08-11T21:42:39.771Z,101781.56
2023-08-11T21:45:06.721Z,101781.56
2023-08-11T21:47:35.712Z,101781.56
2023-08-11T21:50:02.957Z,101785.88
2023-08-11T21:52:29.500Z,101792.19
2023-08-11T21:54:56.010Z,101783.53
2023-08-11T21:57:23.402Z,101793.78
2023-08-11T21:59:50.143Z,101783.53
2023-08-11T22:02:17.247Z,101782.34
2023-08-11T22:04:46.444Z,101790.25
2023-08-11T22:07:13.653Z,101789.84
2023-08-11T22:09:40.720Z,101786.69
2023-08-11T22:12:07.563Z,101784.31
2023-08-11T22:14:34.439Z,101782.75
2023-08-11T22:17:01.477Z,101779.19
2023-08-11T22:19:30.442Z,101781.16
2023-08-11T22:21:57.834Z,101783.53
2023-08-11T22:24:38.501Z,101782.34
2023-08-11T22:27:06.837Z,101782.34
2023-08-11T22:29:33.556Z,101779.22
2023-08-11T22:32:00.149Z,101776.44
2023-08-11T22:34:26.678Z,101779.19
2023-08-11T22:36:53.161Z,101780.78
2023-08-11T22:39:19.851Z,101773.28
2023-08-11T22:41:46.346Z,101768.16
2023-08-11T22:44:12.886Z,101768.94
2023-08-11T22:46:39.629Z,101772.50
2023-08-11T22:49:06.170Z,101770.53
2023-08-11T22:51:32.709Z,101775.66
2023-08-11T22:53:59.277Z,101780.38
2023-08-11T22:56:25.863Z,101771.72
2023-08-11T22:58:52.379Z,101775.66
2023-08-11T23:01:18.891Z,101769.34
2023-08-11T23:03:45.547Z,101769.34
2023-08-11T23:06:12.427Z,101767.38
2023-08-11T23:08:38.907Z,101770.50
2023-08-11T23:11:05.493Z,101759.09
2023-08-11T23:13:32.099Z,101757.53
2023-08-11T23:16:00.757Z,101763.03
2023-08-11T23:18:27.995Z,101771.31
2023-08-11T23:20:54.767Z,101765.00
2023-08-11T23:23:21.275Z,101763.44
2023-08-11T23:25:47.990Z,101755.16
2023-08-11T23:28:14.495Z,101755.53
2023-08-11T23:30:41.209Z,101753.97
2023-08-11T23:33:07.926Z,101747.69
2023-08-11T23:35:38.845Z,101750.81
2023-08-11T23:38:05.952Z,101753.56
2023-08-11T23:40:32.701Z,101762.25
2023-08-11T23:42:59.204Z,101759.88
2023-08-11T23:45:25.880Z,101763.81
2023-08-11T23:47:52.922Z,101755.91
2023-08-11T23:50:19.652Z,101751.19
2023-08-11T23:52:46.229Z,101752.00
2023-08-11T23:55:13.473Z,101740.97
2023-08-11T23:57:40.093Z,101737.44
